sensor_id;sensor_type;location;lat;lon;timestamp;temperature;humidity
24085;DHT22;12268;52.110;5.548;2024-02-16T00:00:08;15.80;99.90
24085;DHT22;12268;52.110;5.548;2024-02-16T00:02:33;15.90;99.90
24085;DHT22;12268;52.110;5.548;2024-02-16T00:04:59;15.70;99.90
24085;DHT22;12268;52.110;5.548;2024-02-16T00:07:25;15.60;99.90
24085;DHT22;12268;52.110;5.548;2024-02-16T00:09:50;15.60;99.90
24085;DHT22;12268;52.110;5.548;2024-02-16T00:12:16;15.60;99.90
24085;DHT22;12268;52.110;5.548;2024-02-16T00:14:42;15.60;99.90
24085;DHT22;12268;52.110;5.548;2024-02-16T00:17:08;15.60;99.90
24085;DHT22;12268;52.110;5.548;2024-02-16T00:19:35;15.40;99.90
24085;DHT22;12268;52.110;5.548;2024-02-16T00:22:01;15.50;99.90
24085;DHT22;12268;52.110;5.548;2024-02-16T00:24:27;15.40;99.90
24085;DHT22;12268;52.110;5.548;2024-02-16T00:26:53;15.50;99.90
24085;DHT22;12268;52.110;5.548;2024-02-16T00:29:18;15.50;99.90
24085;DHT22;12268;52.110;5.548;2024-02-16T00:31:44;15.40;99.90
24085;DHT22;12268;52.110;5.548;2024-02-16T00:34:10;15.40;99.90
24085;DHT22;12268;52.110;5.548;2024-02-16T00:36:36;15.40;99.90
24085;DHT22;12268;52.110;5.548;2024-02-16T00:39:02;15.30;99.90
24085;DHT22;12268;52.110;5.548;2024-02-16T00:41:29;15.40;99.90
24085;DHT22;12268;52.110;5.548;2024-02-16T00:43:55;15.30;99.90
24085;DHT22;12268;52.110;5.548;2024-02-16T00:46:21;15.40;99.90
24085;DHT22;12268;52.110;5.548;2024-02-16T00:48:51;15.30;99.90
24085;DHT22;12268;52.110;5.548;2024-02-16T00:51:17;15.20;99.90
24085;DHT22;12268;52.110;5.548;2024-02-16T00:53:43;15.30;99.90
24085;DHT22;12268;52.110;5.548;2024-02-16T00:56:09;15.30;99.90
24085;DHT22;12268;52.110;5.548;2024-02-16T00:58:35;15.40;99.90
24085;DHT22;12268;52.110;5.548;2024-02-16T01:01:01;15.30;99.90
24085;DHT22;12268;52.110;5.548;2024-02-16T01:03:26;15.30;99.90
24085;DHT22;12268;52.110;5.548;2024-02-16T01:05:52;15.30;99.90
24085;DHT22;12268;52.110;5.548;2024-02-16T01:08:18;15.30;99.90
24085;DHT22;12268;52.110;5.548;2024-02-16T01:10:44;15.10;99.90
24085;DHT22;12268;52.110;5.548;2024-02-16T01:13:10;15.10;99.90
24085;DHT22;12268;52.110;5.548;2024-02-16T01:15:35;15.20;99.90
24085;DHT22;12268;52.110;5.548;2024-02-16T01:18:03;15.20;99.90
24085;DHT22;12268;52.110;5.548;2024-02-16T01:20:29;15.20;99.90
24085;DHT22;12268;52.110;5.548;2024-02-16T01:22:57;15.20;99.90
24085;DHT22;12268;52.110;5.548;2024-02-16T01:25:22;15.20;99.90
24085;DHT22;12268;52.110;5.548;2024-02-16T01:27:48;15.10;99.90
24085;DHT22;12268;52.110;5.548;2024-02-16T01:30:13;15.10;99.90
24085;DHT22;12268;52.110;5.548;2024-02-16T01:32:41;15.20;99.90
24085;DHT22;12268;52.110;5.548;2024-02-16T01:35:07;15.20;99.90
24085;DHT22;12268;52.110;5.548;2024-02-16T01:37:33;15.10;99.90
24085;DHT22;12268;52.110;5.548;2024-02-16T01:39:58;15.00;99.90
24085;DHT22;12268;52.110;5.548;2024-02-16T01:42:24;15.00;99.90
24085;DHT22;12268;52.110;5.548;2024-02-16T01:44:50;14.90;99.90
24085;DHT22;12268;52.110;5.548;2024-02-16T01:47:16;14.90;99.90
24085;DHT22;12268;52.110;5.548;2024-02-16T01:49:44;14.80;99.90
24085;DHT22;12268;52.110;5.548;2024-02-16T04:00:29;15.00;99.90
24085;DHT22;12268;52.110;5.548;2024-02-16T04:02:55;15.00;99.90
24085;DHT22;12268;52.110;5.548;2024-02-16T04:05:20;15.00;99.90
24085;DHT22;12268;52.110;5.548;2024-02-16T04:07:46;15.00;99.90
24085;DHT22;12268;52.110;5.548;2024-02-16T04:10:12;15.00;99.90
24085;DHT22;12268;52.110;5.548;2024-02-16T04:12:37;15.00;99.90
24085;DHT22;12268;52.110;5.548;2024-02-16T04:15:03;15.00;99.90
24085;DHT22;12268;52.110;5.548;2024-02-16T04:17:29;15.00;99.90
24085;DHT22;12268;52.110;5.548;2024-02-16T04:19:55;14.90;99.90
24085;DHT22;12268;52.110;5.548;2024-02-16T04:53:24;14.70;99.90
24085;DHT22;12268;52.110;5.548;2024-02-16T04:55:50;14.80;99.90
24085;DHT22;12268;52.110;5.548;2024-02-16T04:58:16;14.80;99.90
24085;DHT22;12268;52.110;5.548;2024-02-16T05:00:42;14.70;99.90
24085;DHT22;12268;52.110;5.548;2024-02-16T05:03:08;14.70;99.90
24085;DHT22;12268;52.110;5.548;2024-02-16T05:08:01;14.60;99.90
24085;DHT22;12268;52.110;5.548;2024-02-16T05:10:27;14.60;99.90
24085;DHT22;12268;52.110;5.548;2024-02-16T05:12:53;14.60;99.90
24085;DHT22;12268;52.110;5.548;2024-02-16T05:15:19;14.50;99.90
24085;DHT22;12268;52.110;5.548;2024-02-16T05:17:47;14.50;99.90
24085;DHT22;12268;52.110;5.548;2024-02-16T05:20:14;14.60;99.90
24085;DHT22;12268;52.110;5.548;2024-02-16T05:22:45;14.60;99.90
24085;DHT22;12268;52.110;5.548;2024-02-16T05:25:12;14.50;99.90
24085;DHT22;12268;52.110;5.548;2024-02-16T05:27:38;14.50;99.90
24085;DHT22;12268;52.110;5.548;2024-02-16T05:30:08;14.60;99.90
24085;DHT22;12268;52.110;5.548;2024-02-16T05:32:35;14.60;99.90
24085;DHT22;12268;52.110;5.548;2024-02-16T05:35:01;14.60;99.90
24085;DHT22;12268;52.110;5.548;2024-02-16T05:37:30;14.60;99.90
24085;DHT22;12268;52.110;5.548;2024-02-16T05:39:57;14.60;99.90
24085;DHT22;12268;52.110;5.548;2024-02-16T05:42:34;14.50;99.90
24085;DHT22;12268;52.110;5.548;2024-02-16T05:44:59;14.50;99.90
24085;DHT22;12268;52.110;5.548;2024-02-16T05:47:25;14.50;99.90
24085;DHT22;12268;52.110;5.548;2024-02-16T05:49:51;14.50;99.90
24085;DHT22;12268;52.110;5.548;2024-02-16T05:52:17;14.50;99.90
24085;DHT22;12268;52.110;5.548;2024-02-16T05:54:43;14.50;99.90
24085;DHT22;12268;52.110;5.548;2024-02-16T05:57:09;14.40;99.90
24085;DHT22;12268;52.110;5.548;2024-02-16T05:59:35;14.40;99.90
24085;DHT22;12268;52.110;5.548;2024-02-16T06:02:01;14.50;99.90
24085;DHT22;12268;52.110;5.548;2024-02-16T06:04:26;14.50;99.90
24085;DHT22;12268;52.110;5.548;2024-02-16T06:06:52;14.40;99.90
24085;DHT22;12268;52.110;5.548;2024-02-16T06:09:19;14.40;99.90
24085;DHT22;12268;52.110;5.548;2024-02-16T06:11:44;14.60;99.90
24085;DHT22;12268;52.110;5.548;2024-02-16T06:14:10;14.60;99.90
24085;DHT22;12268;52.110;5.548;2024-02-16T06:16:36;14.80;99.90
24085;DHT22;12268;52.110;5.548;2024-02-16T06:19:01;14.80;99.90
24085;DHT22;12268;52.110;5.548;2024-02-16T06:21:27;14.70;99.90
24085;DHT22;12268;52.110;5.548;2024-02-16T06:23:53;14.80;99.90
24085;DHT22;12268;52.110;5.548;2024-02-16T06:26:18;14.80;99.90
24085;DHT22;12268;52.110;5.548;2024-02-16T06:28:45;14.80;99.90
24085;DHT22;12268;52.110;5.548;2024-02-16T06:31:12;14.80;99.90
24085;DHT22;12268;52.110;5.548;2024-02-16T06:33:38;14.80;99.90
24085;DHT22;12268;52.110;5.548;2024-02-16T06:36:04;14.80;99.90
24085;DHT22;12268;52.110;5.548;2024-02-16T06:38:30;14.70;99.90
24085;DHT22;12268;52.110;5.548;2024-02-16T06:40:56;14.70;99.90
24085;DHT22;12268;52.110;5.548;2024-02-16T06:43:22;14.80;99.90
24085;DHT22;12268;52.110;5.548;2024-02-16T06:45:47;14.70;99.90
24085;DHT22;12268;52.110;5.548;2024-02-16T06:48:13;14.80;99.90
24085;DHT22;12268;52.110;5.548;2024-02-16T06:50:39;14.90;99.90
24085;DHT22;12268;52.110;5.548;2024-02-16T06:53:04;14.90;99.90
24085;DHT22;12268;52.110;5.548;2024-02-16T06:55:30;14.90;99.90
24085;DHT22;12268;52.110;5.548;2024-02-16T06:57:56;14.90;99.90
24085;DHT22;12268;52.110;5.548;2024-02-16T07:00:22;15.00;99.90
24085;DHT22;12268;52.110;5.548;2024-02-16T07:02:48;15.10;99.90
24085;DHT22;12268;52.110;5.548;2024-02-16T07:05:13;15.00;99.90
24085;DHT22;12268;52.110;5.548;2024-02-16T07:07:41;15.00;99.90
24085;DHT22;12268;52.110;5.548;2024-02-16T07:10:07;15.20;99.90
24085;DHT22;12268;52.110;5.548;2024-02-16T07:12:33;15.10;99.90
24085;DHT22;12268;52.110;5.548;2024-02-16T07:14:59;15.10;99.90
24085;DHT22;12268;52.110;5.548;2024-02-16T07:17:24;15.00;99.90
24085;DHT22;12268;52.110;5.548;2024-02-16T07:19:50;14.90;99.90
24085;DHT22;12268;52.110;5.548;2024-02-16T07:22:16;15.00;99.90
24085;DHT22;12268;52.110;5.548;2024-02-16T07:24:41;14.90;99.90
24085;DHT22;12268;52.110;5.548;2024-02-16T07:27:07;14.90;99.90
24085;DHT22;12268;52.110;5.548;2024-02-16T07:29:33;14.90;99.90
24085;DHT22;12268;52.110;5.548;2024-02-16T07:32:00;15.20;99.90
24085;DHT22;12268;52.110;5.548;2024-02-16T07:34:25;15.10;99.90
24085;DHT22;12268;52.110;5.548;2024-02-16T07:36:51;15.00;99.90
24085;DHT22;12268;52.110;5.548;2024-02-16T07:39:17;15.20;99.90
24085;DHT22;12268;52.110;5.548;2024-02-16T07:41:42;15.20;99.90
24085;DHT22;12268;52.110;5.548;2024-02-16T07:44:08;15.20;99.90
24085;DHT22;12268;52.110;5.548;2024-02-16T07:46:40;15.30;99.90
24085;DHT22;12268;52.110;5.548;2024-02-16T07:49:05;15.20;99.90
24085;DHT22;12268;52.110;5.548;2024-02-16T07:51:31;15.20;99.90
24085;DHT22;12268;52.110;5.548;2024-02-16T07:53:57;15.30;99.90
24085;DHT22;12268;52.110;5.548;2024-02-16T07:56:23;15.40;99.90
24085;DHT22;12268;52.110;5.548;2024-02-16T07:58:48;15.30;99.90
24085;DHT22;12268;52.110;5.548;2024-02-16T08:01:14;15.40;99.90
24085;DHT22;12268;52.110;5.548;2024-02-16T08:03:42;15.40;99.90
24085;DHT22;12268;52.110;5.548;2024-02-16T08:06:08;15.40;99.90
24085;DHT22;12268;52.110;5.548;2024-02-16T08:08:33;15.40;99.90
24085;DHT22;12268;52.110;5.548;2024-02-16T08:10:59;15.30;99.90
24085;DHT22;12268;52.110;5.548;2024-02-16T08:13:25;15.30;99.90
24085;DHT22;12268;52.110;5.548;2024-02-16T08:15:50;15.50;99.90
24085;DHT22;12268;52.110;5.548;2024-02-16T08:18:17;15.60;99.90
24085;DHT22;12268;52.110;5.548;2024-02-16T08:20:43;15.60;99.90
24085;DHT22;12268;52.110;5.548;2024-02-16T08:23:09;15.60;99.90
24085;DHT22;12268;52.110;5.548;2024-02-16T08:25:34;15.70;99.90
24085;DHT22;12268;52.110;5.548;2024-02-16T08:28:00;15.70;99.90
24085;DHT22;12268;52.110;5.548;2024-02-16T08:30:27;15.90;99.90
24085;DHT22;12268;52.110;5.548;2024-02-16T08:32:53;15.80;99.90
24085;DHT22;12268;52.110;5.548;2024-02-16T08:35:19;15.80;99.90
24085;DHT22;12268;52.110;5.548;2024-02-16T08:37:45;16.00;99.90
24085;DHT22;12268;52.110;5.548;2024-02-16T08:40:13;16.10;99.90
24085;DHT22;12268;52.110;5.548;2024-02-16T08:42:41;16.10;99.90
24085;DHT22;12268;52.110;5.548;2024-02-16T08:45:10;16.20;99.90
24085;DHT22;12268;52.110;5.548;2024-02-16T08:47:37;16.30;99.90
24085;DHT22;12268;52.110;5.548;2024-02-16T08:50:04;16.40;99.90
24085;DHT22;12268;52.110;5.548;2024-02-16T08:52:31;16.50;99.90
24085;DHT22;12268;52.110;5.548;2024-02-16T08:54:56;16.50;99.90
24085;DHT22;12268;52.110;5.548;2024-02-16T08:57:22;16.30;99.90
24085;DHT22;12268;52.110;5.548;2024-02-16T08:59:48;16.30;99.90
24085;DHT22;12268;52.110;5.548;2024-02-16T09:02:13;16.20;99.90
24085;DHT22;12268;52.110;5.548;2024-02-16T09:04:39;16.30;99.90
24085;DHT22;12268;52.110;5.548;2024-02-16T09:07:05;16.50;99.90
24085;DHT22;12268;52.110;5.548;2024-02-16T09:09:31;16.40;99.90
24085;DHT22;12268;52.110;5.548;2024-02-16T09:11:56;16.40;99.90
24085;DHT22;12268;52.110;5.548;2024-02-16T09:14:23;16.30;99.90
24085;DHT22;12268;52.110;5.548;2024-02-16T09:16:49;16.20;99.90
24085;DHT22;12268;52.110;5.548;2024-02-16T09:19:17;16.20;99.90
24085;DHT22;12268;52.110;5.548;2024-02-16T09:21:43;16.10;99.90
24085;DHT22;12268;52.110;5.548;2024-02-16T09:24:09;16.00;99.90
24085;DHT22;12268;52.110;5.548;2024-02-16T09:26:36;15.90;99.90
24085;DHT22;12268;52.110;5.548;2024-02-16T09:29:02;15.80;99.90
24085;DHT22;12268;52.110;5.548;2024-02-16T09:31:28;15.70;99.90
24085;DHT22;12268;52.110;5.548;2024-02-16T09:33:53;15.50;99.90
24085;DHT22;12268;52.110;5.548;2024-02-16T09:36:19;15.30;99.90
24085;DHT22;12268;52.110;5.548;2024-02-16T09:38:45;15.30;99.90
24085;DHT22;12268;52.110;5.548;2024-02-16T09:41:11;15.40;99.90
24085;DHT22;12268;52.110;5.548;2024-02-16T09:43:38;15.30;99.90
24085;DHT22;12268;52.110;5.548;2024-02-16T09:46:05;15.30;99.90
24085;DHT22;12268;52.110;5.548;2024-02-16T09:48:31;15.40;99.90
24085;DHT22;12268;52.110;5.548;2024-02-16T09:50:57;15.40;99.90
24085;DHT22;12268;52.110;5.548;2024-02-16T09:53:28;15.50;99.90
24085;DHT22;12268;52.110;5.548;2024-02-16T09:55:54;15.70;99.90
24085;DHT22;12268;52.110;5.548;2024-02-16T09:58:20;15.80;99.90
24085;DHT22;12268;52.110;5.548;2024-02-16T10:00:54;15.60;99.90
24085;DHT22;12268;52.110;5.548;2024-02-16T10:03:27;15.50;99.90
24085;DHT22;12268;52.110;5.548;2024-02-16T10:06:03;15.20;99.90
24085;DHT22;12268;52.110;5.548;2024-02-16T10:08:29;15.20;99.90
24085;DHT22;12268;52.110;5.548;2024-02-16T10:11:04;15.30;99.90
24085;DHT22;12268;52.110;5.548;2024-02-16T10:13:33;15.40;99.90
24085;DHT22;12268;52.110;5.548;2024-02-16T10:16:09;15.30;99.90
24085;DHT22;12268;52.110;5.548;2024-02-16T10:18:39;15.20;99.90
24085;DHT22;12268;52.110;5.548;2024-02-16T10:21:04;15.10;99.90
24085;DHT22;12268;52.110;5.548;2024-02-16T10:23:30;14.80;99.90
24085;DHT22;12268;52.110;5.548;2024-02-16T10:25:57;14.70;99.90
24085;DHT22;12268;52.110;5.548;2024-02-16T10:28:24;14.60;99.90
24085;DHT22;12268;52.110;5.548;2024-02-16T10:30:58;14.70;99.90
24085;DHT22;12268;52.110;5.548;2024-02-16T10:33:28;14.80;99.90
24085;DHT22;12268;52.110;5.548;2024-02-16T10:35:56;14.80;99.90
24085;DHT22;12268;52.110;5.548;2024-02-16T10:38:25;14.80;99.90
24085;DHT22;12268;52.110;5.548;2024-02-16T10:40:53;14.60;99.90
24085;DHT22;12268;52.110;5.548;2024-02-16T10:43:20;14.50;99.90
24085;DHT22;12268;52.110;5.548;2024-02-16T10:45:47;14.50;99.90
24085;DHT22;12268;52.110;5.548;2024-02-16T10:48:14;14.40;99.90
24085;DHT22;12268;52.110;5.548;2024-02-16T10:50:41;14.30;99.90
24085;DHT22;12268;52.110;5.548;2024-02-16T10:53:18;14.30;99.90
24085;DHT22;12268;52.110;5.548;2024-02-16T10:55:44;14.40;99.90
24085;DHT22;12268;52.110;5.548;2024-02-16T10:58:11;14.30;99.90
24085;DHT22;12268;52.110;5.548;2024-02-16T11:00:54;14.10;99.90
24085;DHT22;12268;52.110;5.548;2024-02-16T11:03:25;14.10;99.90
24085;DHT22;12268;52.110;5.548;2024-02-16T11:05:51;14.10;99.90
24085;DHT22;12268;52.110;5.548;2024-02-16T11:08:18;14.00;99.90
24085;DHT22;12268;52.110;5.548;2024-02-16T11:11:02;13.90;99.90
24085;DHT22;12268;52.110;5.548;2024-02-16T11:13:32;13.80;99.90
24085;DHT22;12268;52.110;5.548;2024-02-16T11:16:09;13.90;99.90
24085;DHT22;12268;52.110;5.548;2024-02-16T11:18:39;14.00;99.90
24085;DHT22;12268;52.110;5.548;2024-02-16T11:21:05;13.90;99.90
24085;DHT22;12268;52.110;5.548;2024-02-16T11:23:35;14.10;99.90
24085;DHT22;12268;52.110;5.548;2024-02-16T11:26:04;14.10;99.90
24085;DHT22;12268;52.110;5.548;2024-02-16T11:28:34;14.20;99.90
24085;DHT22;12268;52.110;5.548;2024-02-16T11:31:01;14.30;99.90
24085;DHT22;12268;52.110;5.548;2024-02-16T11:33:28;14.20;99.90
24085;DHT22;12268;52.110;5.548;2024-02-16T11:35:59;14.20;99.90
24085;DHT22;12268;52.110;5.548;2024-02-16T11:38:25;14.20;99.90
24085;DHT22;12268;52.110;5.548;2024-02-16T11:40:56;14.30;99.90
24085;DHT22;12268;52.110;5.548;2024-02-16T11:43:23;14.30;99.90
24085;DHT22;12268;52.110;5.548;2024-02-16T11:45:49;14.40;99.90
24085;DHT22;12268;52.110;5.548;2024-02-16T11:48:22;14.40;99.90
24085;DHT22;12268;52.110;5.548;2024-02-16T11:50:49;14.50;99.90
24085;DHT22;12268;52.110;5.548;2024-02-16T11:53:18;14.50;99.90
24085;DHT22;12268;52.110;5.548;2024-02-16T11:55:47;14.50;99.90
24085;DHT22;12268;52.110;5.548;2024-02-16T11:58:15;14.60;99.90
24085;DHT22;12268;52.110;5.548;2024-02-16T12:00:42;14.70;99.90
24085;DHT22;12268;52.110;5.548;2024-02-16T12:03:07;14.60;99.90
24085;DHT22;12268;52.110;5.548;2024-02-16T12:05:33;14.60;99.90
24085;DHT22;12268;52.110;5.548;2024-02-16T12:07:59;14.70;99.90
24085;DHT22;12268;52.110;5.548;2024-02-16T12:10:25;14.60;99.90
24085;DHT22;12268;52.110;5.548;2024-02-16T12:12:52;14.40;99.90
24085;DHT22;12268;52.110;5.548;2024-02-16T12:15:18;14.30;99.90
24085;DHT22;12268;52.110;5.548;2024-02-16T12:17:45;14.20;99.90
24085;DHT22;12268;52.110;5.548;2024-02-16T12:20:14;14.10;99.90
24085;DHT22;12268;52.110;5.548;2024-02-16T12:22:39;14.20;99.90
24085;DHT22;12268;52.110;5.548;2024-02-16T12:25:05;14.30;99.90
24085;DHT22;12268;52.110;5.548;2024-02-16T12:27:31;14.50;99.90
24085;DHT22;12268;52.110;5.548;2024-02-16T12:29:57;14.60;99.90
24085;DHT22;12268;52.110;5.548;2024-02-16T12:32:22;14.50;99.90
24085;DHT22;12268;52.110;5.548;2024-02-16T12:34:49;14.50;99.90
24085;DHT22;12268;52.110;5.548;2024-02-16T12:37:15;14.40;99.90
24085;DHT22;12268;52.110;5.548;2024-02-16T12:39:40;14.40;99.90
24085;DHT22;12268;52.110;5.548;2024-02-16T12:42:06;14.50;99.90
24085;DHT22;12268;52.110;5.548;2024-02-16T12:44:32;14.70;99.90
24085;DHT22;12268;52.110;5.548;2024-02-16T12:46:58;14.90;99.90
24085;DHT22;12268;52.110;5.548;2024-02-16T12:49:23;15.10;99.90
24085;DHT22;12268;52.110;5.548;2024-02-16T12:51:49;15.10;99.90
24085;DHT22;12268;52.110;5.548;2024-02-16T12:54:15;15.10;99.90
24085;DHT22;12268;52.110;5.548;2024-02-16T12:56:45;15.10;99.90
24085;DHT22;12268;52.110;5.548;2024-02-16T12:59:11;15.00;99.90
24085;DHT22;12268;52.110;5.548;2024-02-16T13:01:37;14.90;99.90
24085;DHT22;12268;52.110;5.548;2024-02-16T13:04:02;14.70;99.90
24085;DHT22;12268;52.110;5.548;2024-02-16T13:06:28;14.90;99.90
24085;DHT22;12268;52.110;5.548;2024-02-16T13:08:54;14.80;99.90
24085;DHT22;12268;52.110;5.548;2024-02-16T13:11:19;15.10;99.90
24085;DHT22;12268;52.110;5.548;2024-02-16T13:13:45;15.30;99.90
24085;DHT22;12268;52.110;5.548;2024-02-16T13:16:10;15.50;99.90
24085;DHT22;12268;52.110;5.548;2024-02-16T13:18:36;15.70;99.90
24085;DHT22;12268;52.110;5.548;2024-02-16T13:21:02;15.80;99.90
24085;DHT22;12268;52.110;5.548;2024-02-16T13:23:27;15.80;99.90
24085;DHT22;12268;52.110;5.548;2024-02-16T13:25:54;15.70;99.90
24085;DHT22;12268;52.110;5.548;2024-02-16T13:28:20;15.60;99.90
24085;DHT22;12268;52.110;5.548;2024-02-16T13:30:46;15.80;99.90
24085;DHT22;12268;52.110;5.548;2024-02-16T13:33:11;16.10;99.90
24085;DHT22;12268;52.110;5.548;2024-02-16T13:35:37;16.20;99.90
24085;DHT22;12268;52.110;5.548;2024-02-16T13:38:03;16.30;99.90
24085;DHT22;12268;52.110;5.548;2024-02-16T13:40:29;16.40;99.90
24085;DHT22;12268;52.110;5.548;2024-02-16T13:42:55;16.40;99.90
24085;DHT22;12268;52.110;5.548;2024-02-16T13:45:27;16.00;99.90
24085;DHT22;12268;52.110;5.548;2024-02-16T13:47:53;15.80;99.90
24085;DHT22;12268;52.110;5.548;2024-02-16T13:50:18;15.90;99.90
24085;DHT22;12268;52.110;5.548;2024-02-16T13:52:44;15.70;99.90
24085;DHT22;12268;52.110;5.548;2024-02-16T13:55:09;15.70;99.90
24085;DHT22;12268;52.110;5.548;2024-02-16T13:57:35;15.70;99.90
24085;DHT22;12268;52.110;5.548;2024-02-16T14:00:01;15.70;99.90
24085;DHT22;12268;52.110;5.548;2024-02-16T14:02:26;15.80;99.90
24085;DHT22;12268;52.110;5.548;2024-02-16T14:04:52;15.80;99.90
24085;DHT22;12268;52.110;5.548;2024-02-16T14:07:18;15.70;99.90
24085;DHT22;12268;52.110;5.548;2024-02-16T14:09:43;15.80;99.90
24085;DHT22;12268;52.110;5.548;2024-02-16T14:12:09;15.90;99.90
24085;DHT22;12268;52.110;5.548;2024-02-16T14:14:35;15.80;99.90
24085;DHT22;12268;52.110;5.548;2024-02-16T14:17:00;15.60;99.90
24085;DHT22;12268;52.110;5.548;2024-02-16T14:19:26;15.70;99.90
24085;DHT22;12268;52.110;5.548;2024-02-16T14:21:51;15.60;99.90
24085;DHT22;12268;52.110;5.548;2024-02-16T14:24:17;15.60;99.90
24085;DHT22;12268;52.110;5.548;2024-02-16T14:26:43;15.70;99.90
24085;DHT22;12268;52.110;5.548;2024-02-16T14:29:08;15.80;99.90
24085;DHT22;12268;52.110;5.548;2024-02-16T14:31:34;15.80;99.90
24085;DHT22;12268;52.110;5.548;2024-02-16T14:34:00;15.90;99.90
24085;DHT22;12268;52.110;5.548;2024-02-16T14:36:26;15.70;99.90
24085;DHT22;12268;52.110;5.548;2024-02-16T14:38:51;15.60;99.90
24085;DHT22;12268;52.110;5.548;2024-02-16T14:41:17;15.60;99.90
24085;DHT22;12268;52.110;5.548;2024-02-16T14:43:43;15.70;99.90
24085;DHT22;12268;52.110;5.548;2024-02-16T14:46:09;15.80;99.90
24085;DHT22;12268;52.110;5.548;2024-02-16T14:48:35;15.90;99.90
24085;DHT22;12268;52.110;5.548;2024-02-16T14:51:01;15.90;99.90
24085;DHT22;12268;52.110;5.548;2024-02-16T14:53:27;16.00;99.90
24085;DHT22;12268;52.110;5.548;2024-02-16T14:55:55;16.00;99.90
24085;DHT22;12268;52.110;5.548;2024-02-16T14:58:21;15.80;99.90
24085;DHT22;12268;52.110;5.548;2024-02-16T15:00:47;15.70;99.90
24085;DHT22;12268;52.110;5.548;2024-02-16T15:03:12;15.60;99.90
24085;DHT22;12268;52.110;5.548;2024-02-16T15:05:41;15.50;99.90
24085;DHT22;12268;52.110;5.548;2024-02-16T15:08:07;15.50;99.90
24085;DHT22;12268;52.110;5.548;2024-02-16T15:10:32;15.70;99.90
24085;DHT22;12268;52.110;5.548;2024-02-16T15:12:58;15.70;99.90
24085;DHT22;12268;52.110;5.548;2024-02-16T15:15:24;15.70;99.90
24085;DHT22;12268;52.110;5.548;2024-02-16T15:17:49;15.90;99.90
24085;DHT22;12268;52.110;5.548;2024-02-16T15:20:15;15.80;99.90
24085;DHT22;12268;52.110;5.548;2024-02-16T15:22:41;15.80;99.90
24085;DHT22;12268;52.110;5.548;2024-02-16T15:25:07;15.70;99.90
24085;DHT22;12268;52.110;5.548;2024-02-16T15:27:34;15.60;99.90
24085;DHT22;12268;52.110;5.548;2024-02-16T15:30:00;15.50;99.90
24085;DHT22;12268;52.110;5.548;2024-02-16T15:32:27;15.40;99.90
24085;DHT22;12268;52.110;5.548;2024-02-16T15:34:53;15.20;99.90
24085;DHT22;12268;52.110;5.548;2024-02-16T15:37:19;15.00;99.90
24085;DHT22;12268;52.110;5.548;2024-02-16T15:39:46;15.00;99.90
24085;DHT22;12268;52.110;5.548;2024-02-16T15:42:13;15.10;99.90
24085;DHT22;12268;52.110;5.548;2024-02-16T15:44:38;15.30;99.90
24085;DHT22;12268;52.110;5.548;2024-02-16T15:47:04;15.60;99.90
24085;DHT22;12268;52.110;5.548;2024-02-16T15:49:30;15.70;99.90
24085;DHT22;12268;52.110;5.548;2024-02-16T15:51:55;15.90;99.90
24085;DHT22;12268;52.110;5.548;2024-02-16T15:54:21;16.00;99.90
24085;DHT22;12268;52.110;5.548;2024-02-16T15:56:51;16.00;99.90
24085;DHT22;12268;52.110;5.548;2024-02-16T15:59:17;16.10;99.90
24085;DHT22;12268;52.110;5.548;2024-02-16T16:01:43;16.20;99.90
24085;DHT22;12268;52.110;5.548;2024-02-16T16:04:09;16.30;99.90
24085;DHT22;12268;52.110;5.548;2024-02-16T16:06:35;16.20;99.90
24085;DHT22;12268;52.110;5.548;2024-02-16T16:09:01;16.00;99.90
24085;DHT22;12268;52.110;5.548;2024-02-16T16:11:31;15.90;99.90
24085;DHT22;12268;52.110;5.548;2024-02-16T16:13:57;15.60;99.90
24085;DHT22;12268;52.110;5.548;2024-02-16T16:16:22;15.60;99.90
24085;DHT22;12268;52.110;5.548;2024-02-16T16:18:48;15.40;99.90
24085;DHT22;12268;52.110;5.548;2024-02-16T16:21:14;15.20;99.90
24085;DHT22;12268;52.110;5.548;2024-02-16T16:23:39;15.40;99.90
24085;DHT22;12268;52.110;5.548;2024-02-16T16:26:05;15.60;99.90
24085;DHT22;12268;52.110;5.548;2024-02-16T16:28:31;15.80;99.90
24085;DHT22;12268;52.110;5.548;2024-02-16T16:30:57;16.10;99.90
24085;DHT22;12268;52.110;5.548;2024-02-16T16:33:22;16.10;99.90
24085;DHT22;12268;52.110;5.548;2024-02-16T16:35:48;16.10;99.90
24085;DHT22;12268;52.110;5.548;2024-02-16T16:38:19;16.20;99.90
24085;DHT22;12268;52.110;5.548;2024-02-16T16:40:45;16.30;99.90
24085;DHT22;12268;52.110;5.548;2024-02-16T16:43:10;16.40;99.90
24085;DHT22;12268;52.110;5.548;2024-02-16T16:45:37;16.40;99.90
24085;DHT22;12268;52.110;5.548;2024-02-16T16:48:03;16.40;99.90
24085;DHT22;12268;52.110;5.548;2024-02-16T16:50:29;16.30;99.90
24085;DHT22;12268;52.110;5.548;2024-02-16T16:52:54;16.10;99.90
24085;DHT22;12268;52.110;5.548;2024-02-16T16:55:20;15.80;99.90
24085;DHT22;12268;52.110;5.548;2024-02-16T16:57:46;15.70;99.90
24085;DHT22;12268;52.110;5.548;2024-02-16T17:00:12;15.70;99.90
24085;DHT22;12268;52.110;5.548;2024-02-16T17:02:38;15.70;99.90
24085;DHT22;12268;52.110;5.548;2024-02-16T17:05:04;15.70;99.90
24085;DHT22;12268;52.110;5.548;2024-02-16T17:07:30;15.70;99.90
24085;DHT22;12268;52.110;5.548;2024-02-16T17:09:57;15.80;99.90
24085;DHT22;12268;52.110;5.548;2024-02-16T17:12:23;15.90;99.90
24085;DHT22;12268;52.110;5.548;2024-02-16T17:14:53;15.90;99.90
24085;DHT22;12268;52.110;5.548;2024-02-16T17:17:19;15.80;99.90
24085;DHT22;12268;52.110;5.548;2024-02-16T17:19:45;15.80;99.90
24085;DHT22;12268;52.110;5.548;2024-02-16T17:22:11;16.10;99.90
24085;DHT22;12268;52.110;5.548;2024-02-16T17:24:37;16.30;99.90
24085;DHT22;12268;52.110;5.548;2024-02-16T17:27:03;16.40;99.90
24085;DHT22;12268;52.110;5.548;2024-02-16T17:29:30;16.30;99.90
24085;DHT22;12268;52.110;5.548;2024-02-16T17:31:56;16.20;99.90
24085;DHT22;12268;52.110;5.548;2024-02-16T17:34:23;16.00;99.90
24085;DHT22;12268;52.110;5.548;2024-02-16T17:36:48;15.80;99.90
24085;DHT22;12268;52.110;5.548;2024-02-16T17:39:15;15.70;99.90
24085;DHT22;12268;52.110;5.548;2024-02-16T17:41:41;15.60;99.90
24085;DHT22;12268;52.110;5.548;2024-02-16T17:44:06;15.50;99.90
24085;DHT22;12268;52.110;5.548;2024-02-16T17:46:32;15.40;99.90
24085;DHT22;12268;52.110;5.548;2024-02-16T17:48:58;15.20;99.90
24085;DHT22;12268;52.110;5.548;2024-02-16T17:51:23;15.10;99.90
24085;DHT22;12268;52.110;5.548;2024-02-16T17:53:49;15.10;99.90
24085;DHT22;12268;52.110;5.548;2024-02-16T17:56:15;15.10;99.90
24085;DHT22;12268;52.110;5.548;2024-02-16T17:58:40;15.20;99.90
24085;DHT22;12268;52.110;5.548;2024-02-16T18:01:06;15.20;99.90
24085;DHT22;12268;52.110;5.548;2024-02-16T18:03:32;15.00;99.90
24085;DHT22;12268;52.110;5.548;2024-02-16T18:05:57;14.90;99.90